Time;durP1;ratioP1;P1;durP2;ratioP2;P2;SDS_P1;SDS_P2;PMS_P1;PMS_P2;Temp;Humidity;BMP_temperature;BMP_pressure;BME280_temperature;BME280_humidity;BME280_pressure;Samples;Min_cycle;Max_cycle;Signal;HPM_P1;HPM_P2
2022/10/27 00:00:13;;;;;;;7.10;2.92;;;;;;;15.05;100.00;102007.97;5076708;28;20032;-67
2022/10/27 00:02:38;;;;;;;4.78;2.53;;;;;;;15.04;100.00;102003.53;5077694;28;20052;-67
2022/10/27 00:05:04;;;;;;;9.68;2.60;;;;;;;15.04;100.00;102003.53;5092653;28;20031;-67
2022/10/27 00:07:29;;;;;;;11.95;3.38;;;;;;;15.00;100.00;102002.56;5082911;28;20023;-68
2022/10/27 00:09:55;;;;;;;7.45;3.00;;;;;;;14.96;100.00;102003.38;5086370;28;20107;-67
2022/10/27 00:12:20;;;;;;;8.15;2.53;;;;;;;14.90;100.00;102003.28;5074949;28;20039;-68
2022/10/27 00:14:45;;;;;;;12.38;2.95;;;;;;;14.87;100.00;101998.81;5090793;28;20424;-67
2022/10/27 00:17:11;;;;;;;7.55;2.83;;;;;;;14.87;100.00;102003.22;5088358;28;20032;-68
2022/10/27 00:19:36;;;;;;;14.60;3.58;;;;;;;14.83;100.00;102000.53;5084319;28;20071;-67
2022/10/27 00:22:01;;;;;;;9.73;3.22;;;;;;;14.80;100.00;102005.78;5085654;28;20108;-68
2022/10/27 00:24:27;;;;;;;6.95;2.58;;;;;;;14.79;100.00;102009.28;5079915;28;20057;-66
2022/10/27 00:26:52;;;;;;;7.80;2.58;;;;;;;14.81;100.00;102012.88;5088231;28;20032;-67
2022/10/27 00:29:17;;;;;;;5.20;2.90;;;;;;;14.82;100.00;102008.44;5085059;28;20023;-67
2022/10/27 00:31:42;;;;;;;11.15;3.10;;;;;;;14.87;100.00;102011.16;5078469;28;20025;-67
2022/10/27 00:34:08;;;;;;;6.68;3.42;;;;;;;14.93;100.00;102013.94;5077214;28;20024;-68
2022/10/27 00:36:33;;;;;;;8.25;2.85;;;;;;;14.97;100.00;102008.69;5088797;28;20491;-67
2022/10/27 00:38:59;;;;;;;12.23;3.13;;;;;;;15.02;100.00;102019.41;5083914;28;20035;-67
2022/10/27 00:41:29;;;;;;;12.32;3.50;;;;;;;15.06;100.00;102026.53;5076037;28;20460;-67
2022/10/27 00:43:56;;;;;;;7.35;2.95;;;;;;;15.06;100.00;102023.00;5074122;28;20020;-68
2022/10/27 00:46:44;;;;;;;9.35;3.90;;;;;;;15.07;100.00;102023.03;5076448;28;20021;-67
2022/10/27 00:49:16;;;;;;;9.88;3.58;;;;;;;15.06;100.00;102026.53;5089953;28;20024;-68
2022/10/27 00:51:45;;;;;;;10.02;4.70;;;;;;;15.06;100.00;102039.78;5087461;28;20495;-68
2022/10/27 00:54:13;;;;;;;10.00;4.03;;;;;;;15.04;100.00;102033.56;5086725;28;20463;-67
2022/10/27 00:56:40;;;;;;;10.18;4.13;;;;;;;14.99;100.00;102032.63;5075870;28;20120;-67
2022/10/27 00:59:06;;;;;;;8.00;4.28;;;;;;;14.95;100.00;102026.34;5090230;28;20074;-67
2022/10/27 01:01:31;;;;;;;10.50;3.70;;;;;;;14.92;100.00;102030.69;5085870;28;20020;-68
2022/10/27 01:03:57;;;;;;;10.00;4.63;;;;;;;14.89;100.00;102028.00;5087235;28;20028;-68
2022/10/27 01:06:23;;;;;;;10.07;3.95;;;;;;;14.84;100.00;102026.16;5086787;28;20411;-66
2022/10/27 01:08:50;;;;;;;7.60;3.85;;;;;;;14.82;100.00;102038.47;5084663;28;20044;-67
2022/10/27 01:11:15;;;;;;;12.45;4.00;;;;;;;14.79;100.00;102024.31;5087512;28;20032;-68
2022/10/27 01:13:40;;;;;;;13.60;4.40;;;;;;;14.79;100.00;102029.59;5086500;28;20527;-66
2022/10/27 01:16:18;;;;;;;8.82;4.30;;;;;;;14.74;100.00;102026.84;5092953;28;20055;-67
2022/10/27 01:19:00;;;;;;;10.13;4.53;;;;;;;14.72;100.00;102039.19;5088669;28;20028;-67
2022/10/27 01:21:44;;;;;;;12.13;5.20;;;;;;;14.68;100.00;102032.06;5076396;28;20028;-67
2022/10/27 01:24:31;;;;;;;9.27;4.53;;;;;;;14.65;100.00;102026.72;5086477;28;20016;-66
2022/10/27 01:27:06;;;;;;;16.35;6.10;;;;;;;14.63;100.00;102023.13;5089599;28;20043;-67
2022/10/27 01:29:49;;;;;;;7.47;4.60;;;;;;;14.61;100.00;102027.44;5096067;28;20024;-66
2022/10/27 01:32:29;;;;;;;7.88;4.20;;;;;;;14.58;100.00;102024.75;5088401;28;20032;-67
2022/10/27 01:35:03;;;;;;;11.05;5.25;;;;;;;14.55;100.00;102028.22;5093035;28;20458;-67
2022/10/27 01:37:36;;;;;;;9.88;5.30;;;;;;;14.53;100.00;102029.06;5094923;28;20020;-68
2022/10/27 01:40:25;;;;;;;10.48;5.90;;;;;;;14.48;100.00;102027.22;5083009;28;20137;-66
2022/10/27 01:43:00;;;;;;;10.30;5.32;;;;;;;14.43;100.00;102020.97;5042128;28;20455;-67
2022/10/27 01:45:30;;;;;;;9.63;5.03;;;;;;;14.39;100.00;102021.75;5084585;28;20086;-67
2022/10/27 01:47:57;;;;;;;13.82;5.38;;;;;;;14.36;100.00;102024.34;5087791;28;20026;-67
2022/10/27 01:50:34;;;;;;;12.35;5.80;;;;;;;14.33;100.00;102025.16;5094653;28;20039;-67
2022/10/27 01:53:00;;;;;;;8.68;5.32;;;;;;;14.32;100.00;102017.19;5090550;28;20032;-68
2022/10/27 01:55:33;;;;;;;12.43;5.53;;;;;;;14.30;100.00;102021.56;5094272;28;20039;-68
2022/10/27 01:58:13;;;;;;;14.95;5.70;;;;;;;14.28;100.00;102020.63;5088362;28;20139;-66
2022/10/27 02:00:55;;;;;;;12.50;5.30;;;;;;;14.25;100.00;102010.00;5092229;28;20035;-66
2022/10/27 02:03:31;;;;;;;9.13;5.35;;;;;;;14.22;100.00;102009.94;5092748;28;20031;-66
2022/10/27 02:06:08;;;;;;;17.20;6.30;;;;;;;14.19;100.00;102009.84;5085833;28;20142;-66
2022/10/27 02:08:53;;;;;;;10.00;5.47;;;;;;;14.16;100.00;101998.34;5078485;28;20032;-67
2022/10/27 02:11:19;;;;;;;13.73;5.55;;;;;;;14.14;100.00;102002.72;5086848;28;20050;-67
2022/10/27 02:13:45;;;;;;;15.48;6.70;;;;;;;14.13;100.00;102006.25;5088882;28;20467;-66
2022/10/27 02:16:33;;;;;;;14.20;6.47;;;;;;;14.11;100.00;102002.66;5075241;28;20106;-68
2022/10/27 02:19:09;;;;;;;11.25;5.88;;;;;;;14.08;100.00;102002.59;5074884;28;20537;-65
2022/10/27 02:21:36;;;;;;;10.82;6.10;;;;;;;14.05;100.00;101997.22;5078738;28;20012;-67
2022/10/27 02:24:03;;;;;;;12.65;5.85;;;;;;;14.02;100.00;101997.16;5093929;28;20081;-67
2022/10/27 02:26:52;;;;;;;10.43;5.10;;;;;;;13.99;100.00;101999.75;5083993;28;20024;-67
2022/10/27 02:29:26;;;;;;;10.73;6.65;;;;;;;13.96;100.00;101997.94;5056761;28;20063;-66
2022/10/27 02:31:55;;;;;;;11.88;6.50;;;;;;;13.93;100.00;101995.25;5085422;28;20051;-67
2022/10/27 02:34:22;;;;;;;15.60;6.20;;;;;;;13.90;100.00;101996.91;5085375;28;20023;-67
2022/10/27 02:36:48;;;;;;;14.38;5.82;;;;;;;13.87;100.00;101996.84;5083807;28;20028;-69
2022/10/27 02:39:13;;;;;;;15.23;6.13;;;;;;;13.81;100.00;101987.91;5093583;28;20024;-67
2022/10/27 02:41:39;;;;;;;11.95;5.82;;;;;;;13.80;100.00;101991.41;5086208;28;20532;-66
2022/10/27 02:44:04;;;;;;;11.98;5.32;;;;;;;13.80;100.00;101988.78;5078883;28;20028;-66
2022/10/27 02:46:29;;;;;;;10.25;5.38;;;;;;;13.78;100.00;101986.94;5092740;28;20485;-66
2022/10/27 02:48:54;;;;;;;17.17;5.43;;;;;;;13.73;100.00;101984.22;5094308;28;20023;-66
2022/10/27 02:51:20;;;;;;;12.70;5.95;;;;;;;13.70;100.00;101989.44;5086987;28;20384;-67
2022/10/27 02:53:45;;;;;;;12.38;6.00;;;;;;;13.69;100.00;101987.66;5086904;28;20028;-68
2022/10/27 02:56:11;;;;;;;17.15;6.30;;;;;;;13.65;100.00;101988.44;5078884;28;20058;-67
2022/10/27 02:58:37;;;;;;;11.38;6.30;;;;;;;13.60;100.00;101980.41;5075028;28;20052;-67
2022/10/27 03:01:02;;;;;;;9.25;5.82;;;;;;;13.58;100.00;101982.13;5093943;28;20107;-67
2022/10/27 03:03:28;;;;;;;10.95;7.03;;;;;;;13.56;100.00;101990.88;5076845;28;20036;-68
2022/10/27 03:05:53;;;;;;;14.77;6.22;;;;;;;13.55;100.00;101983.81;5074323;28;20024;-68
2022/10/27 03:08:18;;;;;;;14.90;6.55;;;;;;;13.53;100.00;101980.25;5093540;28;20371;-68
2022/10/27 03:10:44;;;;;;;13.82;6.22;;;;;;;13.52;100.00;101983.75;5092864;28;20030;-68
2022/10/27 03:13:10;;;;;;;9.38;5.40;;;;;;;13.48;100.00;101975.75;5087152;28;20423;-68
2022/10/27 03:15:35;;;;;;;13.52;6.07;;;;;;;13.44;100.00;101979.19;5087406;28;20379;-68
2022/10/27 03:18:01;;;;;;;11.18;6.55;;;;;;;13.44;100.00;101981.81;5092837;28;20387;-67
2022/10/27 03:20:26;;;;;;;13.40;6.25;;;;;;;13.43;100.00;101973.81;5088811;28;20217;-67
2022/10/27 03:22:52;;;;;;;13.90;6.00;;;;;;;13.43;100.00;101979.13;5087324;28;20024;-68
2022/10/27 03:25:17;;;;;;;11.43;5.82;;;;;;;13.42;100.00;101975.59;5092792;28;20048;-69
2022/10/27 03:27:43;;;;;;;15.98;6.85;;;;;;;13.41;100.00;101975.56;5083318;28;20365;-68
2022/10/27 03:30:11;;;;;;;10.10;6.30;;;;;;;13.42;100.00;101977.34;5078482;28;20039;-67
2022/10/27 03:32:37;;;;;;;16.27;6.70;;;;;;;13.42;100.00;101986.16;5092323;28;20099;-68
2022/10/27 03:35:02;;;;;;;21.33;6.65;;;;;;;13.41;100.00;101976.44;5082717;28;20063;-67
2022/10/27 03:37:28;;;;;;;15.10;5.63;;;;;;;13.41;100.00;101983.50;5079838;28;20034;-71
2022/10/27 03:39:53;;;;;;;11.75;7.18;;;;;;;13.39;100.00;101988.75;5093033;28;20035;-69
2022/10/27 03:42:18;;;;;;;11.48;5.90;;;;;;;13.38;100.00;101981.66;5082721;28;20491;-68
2022/10/27 03:44:43;;;;;;;11.82;5.80;;;;;;;13.35;100.00;101986.84;5085013;28;20115;-68
2022/10/27 03:47:09;;;;;;;11.77;5.65;;;;;;;13.32;100.00;101999.97;5083856;28;20099;-68
2022/10/27 03:49:34;;;;;;;15.45;5.80;;;;;;;13.24;100.00;102001.56;5090973;28;20082;-67
2022/10/27 03:52:00;;;;;;;12.52;6.70;;;;;;;13.21;100.00;101999.75;5069653;28;20032;-67
2022/10/27 03:54:29;;;;;;;9.00;5.38;;;;;;;13.14;100.00;101998.72;5073111;28;20399;-66
2022/10/27 03:56:54;;;;;;;9.57;5.15;;;;;;;13.11;100.00;102003.00;5082091;28;20073;-66
2022/10/27 03:59:19;;;;;;;18.30;6.55;;;;;;;13.10;100.00;101996.84;5087636;28;20131;-68
2022/10/27 04:01:44;;;;;;;11.60;5.93;;;;;;;13.10;100.00;101998.56;5079854;28;20024;-67
2022/10/27 04:04:10;;;;;;;10.68;5.95;;;;;;;13.07;100.00;101996.75;5085106;28;20031;-67
2022/10/27 04:06:36;;;;;;;12.35;5.75;;;;;;;13.02;100.00;102003.66;5089116;28;20081;-67
2022/10/27 04:09:01;;;;;;;11.52;5.70;;;;;;;13.00;100.00;102008.03;5076083;28;20111;-67
2022/10/27 04:11:26;;;;;;;11.10;5.20;;;;;;;12.97;100.00;102015.88;5086518;28;20035;-66
2022/10/27 04:13:52;;;;;;;10.45;4.93;;;;;;;12.93;100.00;102006.97;5090453;28;20028;-66
2022/10/27 04:16:17;;;;;;;10.85;5.25;;;;;;;12.91;100.00;102005.16;5083764;28;20103;-67
2022/10/27 04:18:42;;;;;;;8.73;5.32;;;;;;;12.92;100.00;102009.59;5077629;28;20024;-68
2022/10/27 04:21:08;;;;;;;10.18;4.90;;;;;;;12.87;100.00;102003.28;5091117;28;20032;-67
2022/10/27 04:23:33;;;;;;;9.45;4.65;;;;;;;12.84;100.00;102009.38;5092625;28;20404;-67
2022/10/27 04:25:58;;;;;;;11.38;5.60;;;;;;;12.81;100.00;102010.19;5090099;28;20055;-66
2022/10/27 04:28:24;;;;;;;15.43;5.40;;;;;;;12.82;100.00;102011.09;5091612;28;20422;-67
2022/10/27 04:30:49;;;;;;;14.65;6.00;;;;;;;12.82;100.00;102008.47;5089839;28;20376;-67
2022/10/27 04:33:15;;;;;;;8.55;5.05;;;;;;;12.83;100.00;102010.22;5087739;28;20060;-68
2022/10/27 04:35:40;;;;;;;12.18;5.05;;;;;;;12.84;100.00;102003.22;5087921;28;20105;-67
2022/10/27 04:38:06;;;;;;;12.02;5.65;;;;;;;12.87;100.00;102008.56;5089582;28;20020;-67
2022/10/27 04:40:31;;;;;;;9.38;5.57;;;;;;;12.88;100.00;102013.00;5091229;28;20024;-68
2022/10/27 04:42:56;;;;;;;10.13;5.00;;;;;;;12.86;100.00;102006.78;5091676;28;20119;-67
2022/10/27 04:45:22;;;;;;;14.25;5.40;;;;;;;12.87;100.00;102001.53;5079151;28;20028;-67
2022/10/27 04:47:47;;;;;;;9.93;4.88;;;;;;;12.87;100.00;102003.28;5084131;28;20069;-67
2022/10/27 04:50:14;;;;;;;9.13;4.47;;;;;;;12.90;100.00;101998.06;5095675;28;20032;-67
2022/10/27 04:52:40;;;;;;;12.90;4.72;;;;;;;12.92;100.00;101991.09;5091574;28;20032;-67
2022/10/27 04:55:06;;;;;;;10.77;4.65;;;;;;;12.93;100.00;102003.47;5084006;28;20032;-67
2022/10/27 04:57:32;;;;;;;10.85;4.57;;;;;;;12.90;100.00;101992.78;5080251;28;20072;-66
2022/10/27 04:59:57;;;;;;;13.07;4.65;;;;;;;12.91;100.00;101990.19;5088192;28;20066;-66
2022/10/27 05:02:22;;;;;;;11.32;5.68;;;;;;;12.92;100.00;101991.09;5093366;28;20123;-66
2022/10/27 05:04:47;;;;;;;12.32;4.80;;;;;;;12.92;100.00;101991.09;5088779;28;20444;-68
2022/10/27 05:07:13;;;;;;;9.02;4.32;;;;;;;12.92;100.00;101991.97;5092526;28;20110;-68
2022/10/27 05:09:38;;;;;;;15.27;5.28;;;;;;;12.93;100.00;101992.88;5085603;28;20020;-69
2022/10/27 05:12:04;;;;;;;13.40;4.80;;;;;;;12.94;100.00;101986.72;5084629;28;20059;-67
2022/10/27 05:14:29;;;;;;;15.38;4.93;;;;;;;12.96;100.00;101987.66;5077800;28;20031;-67
2022/10/27 05:16:54;;;;;;;8.95;4.50;;;;;;;12.98;100.00;101984.22;5080999;28;20028;-65
2022/10/27 05:19:20;;;;;;;9.18;4.93;;;;;;;12.99;100.00;101978.09;5087115;28;20064;-68
2022/10/27 05:21:45;;;;;;;12.52;5.32;;;;;;;13.03;100.00;101973.75;5095390;28;20019;-66
2022/10/27 05:24:10;;;;;;;10.43;4.70;;;;;;;13.07;100.00;101980.00;5095259;28;20020;-67
2022/10/27 05:26:35;;;;;;;11.68;4.18;;;;;;;13.12;100.00;101976.63;5084838;28;20032;-67
2022/10/27 05:29:01;;;;;;;8.27;4.20;;;;;;;13.16;100.00;101973.19;5083248;28;20106;-68
2022/10/27 05:31:26;;;;;;;8.88;3.85;;;;;;;13.23;100.00;101976.00;5090141;28;20032;-68
2022/10/27 05:33:51;;;;;;;8.98;4.28;;;;;;;13.27;100.00;101977.84;5087723;28;20410;-67
2022/10/27 05:36:17;;;;;;;9.23;4.20;;;;;;;13.29;100.00;101984.97;5085144;28;20036;-67
2022/10/27 05:38:44;;;;;;;5.95;3.83;;;;;;;13.33;100.00;101977.97;5094290;28;20038;-67
2022/10/27 05:41:10;;;;;;;13.50;4.85;;;;;;;13.33;100.00;101970.06;5090834;28;20102;-66
2022/10/27 05:43:35;;;;;;;5.78;3.53;;;;;;;13.35;100.00;101963.06;5075370;28;20515;-67
2022/10/27 05:46:00;;;;;;;10.63;3.92;;;;;;;13.36;100.00;101970.19;5092619;28;20028;-67
2022/10/27 05:48:26;;;;;;;11.73;3.72;;;;;;;13.38;100.00;101968.44;5094381;28;20425;-67
2022/10/27 05:50:52;;;;;;;8.50;3.33;;;;;;;13.40;100.00;101972.03;5080353;28;20052;-67
2022/10/27 05:53:18;;;;;;;6.15;4.07;;;;;;;13.39;100.00;101961.41;5085754;28;20161;-67
2022/10/27 05:55:43;;;;;;;9.73;4.40;;;;;;;13.41;100.00;101960.56;5092010;28;20028;-68
2022/10/27 05:58:09;;;;;;;7.82;3.67;;;;;;;13.42;100.00;101962.38;5092605;28;20040;-68
2022/10/27 06:00:37;;;;;;;11.73;3.45;;;;;;;13.42;100.00;101951.78;5082458;28;20024;-68
2022/10/27 06:03:05;;;;;;;7.25;3.38;;;;;;;13.44;100.00;101950.09;5080004;28;20059;-68
2022/10/27 06:05:33;;;;;;;4.07;2.97;;;;;;;13.45;100.00;101945.69;5094899;28;20456;-68
2022/10/27 06:07:59;;;;;;;6.93;3.22;;;;;;;13.44;100.00;101941.25;5092787;28;20127;-68
2022/10/27 06:10:24;;;;;;;8.18;3.28;;;;;;;13.44;100.00;101943.91;5093835;28;20978;-66
2022/10/27 06:12:50;;;;;;;7.38;3.15;;;;;;;13.41;100.00;101944.72;5085267;28;20034;-67
2022/10/27 06:15:15;;;;;;;9.00;3.40;;;;;;;13.42;100.00;101945.63;5086037;28;20060;-66
2022/10/27 06:17:40;;;;;;;10.15;3.17;;;;;;;13.39;100.00;101941.16;5080981;28;20074;-66
2022/10/27 06:20:07;;;;;;;8.65;3.20;;;;;;;13.38;100.00;101944.66;5087033;28;20027;-67
2022/10/27 06:22:32;;;;;;;10.35;3.28;;;;;;;13.36;100.00;101942.84;5084428;28;20051;-67
2022/10/27 06:24:57;;;;;;;7.90;3.60;;;;;;;13.31;100.00;101937.41;5083886;28;20059;-66
2022/10/27 06:27:23;;;;;;;7.60;3.33;;;;;;;13.30;100.00;101935.63;5088230;28;20054;-68
2022/10/27 06:29:48;;;;;;;8.77;2.92;;;;;;;13.29;100.00;101934.75;5080127;28;20025;-69
2022/10/27 06:32:14;;;;;;;7.68;3.45;;;;;;;13.30;100.00;101930.34;5074278;28;20058;-67
2022/10/27 06:34:39;;;;;;;9.18;3.13;;;;;;;13.30;100.00;101927.69;5084187;28;20174;-67
2022/10/27 06:37:08;;;;;;;8.73;3.17;;;;;;;13.31;100.00;101926.84;5089197;28;20427;-67
2022/10/27 06:39:33;;;;;;;4.53;2.53;;;;;;;13.33;100.00;101927.75;5093596;28;20135;-67
2022/10/27 06:41:58;;;;;;;8.00;3.28;;;;;;;13.31;100.00;101926.84;5091728;28;20099;-68
2022/10/27 06:44:25;;;;;;;8.50;3.17;;;;;;;13.32;100.00;101918.03;5082968;28;20057;-67
2022/10/27 06:46:50;;;;;;;6.80;3.25;;;;;;;13.34;100.00;101929.56;5081933;28;20064;-68
2022/10/27 06:49:16;;;;;;;10.05;2.45;;;;;;;13.37;100.00;101921.72;5076488;28;20399;-68
2022/10/27 06:51:41;;;;;;;7.97;3.40;;;;;;;13.37;100.00;101924.34;5078109;28;20024;-67
2022/10/27 06:54:07;;;;;;;6.00;2.88;;;;;;;13.38;100.00;101920.88;5083924;28;20036;-68
2022/10/27 06:56:33;;;;;;;6.13;3.38;;;;;;;13.40;100.00;101921.81;5073393;28;20376;-68
2022/10/27 06:58:59;;;;;;;5.03;2.75;;;;;;;13.40;100.00;101932.38;5089614;28;20059;-67
2022/10/27 07:01:24;;;;;;;8.13;2.65;;;;;;;13.41;100.00;101933.25;5086028;28;20019;-68
2022/10/27 07:03:50;;;;;;;8.00;3.40;;;;;;;13.41;100.00;101939.44;5087756;28;20032;-68
2022/10/27 07:06:15;;;;;;;5.03;2.70;;;;;;;13.39;100.00;101935.88;5081190;28;20059;-67
2022/10/27 07:08:41;;;;;;;10.63;3.58;;;;;;;13.38;100.00;101930.56;5088676;28;20356;-66
2022/10/27 07:11:06;;;;;;;6.68;3.45;;;;;;;13.33;100.00;101933.97;5079816;28;20161;-68
2022/10/27 07:13:32;;;;;;;6.22;3.20;;;;;;;13.29;100.00;101928.53;5089433;28;20016;-67
2022/10/27 07:15:57;;;;;;;6.88;3.90;;;;;;;13.23;100.00;101923.13;5089250;28;20490;-67
2022/10/27 07:18:22;;;;;;;7.45;4.03;;;;;;;13.20;100.00;101925.69;5084184;28;20173;-68
2022/10/27 07:20:50;;;;;;;9.00;3.75;;;;;;;13.19;100.00;101931.84;5080478;28;20020;-68
2022/10/27 07:23:15;;;;;;;8.20;3.60;;;;;;;13.16;100.00;101933.56;5083815;28;20024;-67
2022/10/27 07:25:54;;;;;;;7.60;4.18;;;;;;;13.15;100.00;101926.47;5084803;28;20063;-68
2022/10/27 07:28:20;;;;;;;8.02;3.63;;;;;;;13.18;100.00;101935.34;5084766;28;20386;-68
2022/10/27 07:30:47;;;;;;;5.80;3.20;;;;;;;13.23;100.00;101941.63;5077500;28;20059;-68
2022/10/27 07:33:13;;;;;;;9.82;3.95;;;;;;;13.24;100.00;101936.38;5078199;28;20032;-69
2022/10/27 07:35:39;;;;;;;10.50;3.60;;;;;;;13.29;100.00;101939.13;5083517;28;20032;-68
2022/10/27 07:38:06;;;;;;;7.55;3.80;;;;;;;13.33;100.00;101930.41;5088851;28;20497;-67
2022/10/27 07:40:33;;;;;;;9.27;3.65;;;;;;;13.36;100.00;101935.81;5079343;28;20082;-68
2022/10/27 07:43:01;;;;;;;9.50;3.20;;;;;;;13.43;100.00;101931.53;5086153;28;20027;-67
2022/10/27 07:45:27;;;;;;;8.23;3.20;;;;;;;13.46;100.00;101932.50;5077604;28;20028;-68
2022/10/27 07:47:55;;;;;;;10.70;5.05;;;;;;;13.53;100.00;101933.53;5077989;28;21801;-67
2022/10/27 07:50:23;;;;;;;5.03;3.10;;;;;;;13.59;100.00;101927.47;5088358;28;20456;-67
2022/10/27 07:52:51;;;;;;;8.00;3.05;;;;;;;13.67;100.00;101931.16;5086385;28;20030;-66
2022/10/27 07:55:18;;;;;;;6.60;2.75;;;;;;;13.73;100.00;101933.97;5087174;28;20493;-66
2022/10/27 07:57:44;;;;;;;4.95;2.20;;;;;;;13.82;100.00;101928.88;5084794;28;20040;-66
2022/10/27 08:00:12;;;;;;;8.50;2.70;;;;;;;13.87;100.00;101925.41;5076448;28;20123;-68
2022/10/27 08:02:38;;;;;;;9.38;3.05;;;;;;;13.94;100.00;101922.03;5089936;28;20059;-67
2022/10/27 08:05:04;;;;;;;6.93;2.80;;;;;;;13.98;100.00;101910.66;5087390;28;20028;-68
2022/10/27 08:07:32;;;;;;;6.90;2.95;;;;;;;14.06;100.00;101913.44;5084527;28;20081;-68
2022/10/27 08:09:58;;;;;;;9.07;2.88;;;;;;;14.11;100.00;101920.59;5085039;28;20103;-68
2022/10/27 08:12:24;;;;;;;10.77;2.83;;;;;;;14.18;100.00;101920.75;5092217;28;20132;-67
2022/10/27 08:14:50;;;;;;;4.22;2.63;;;;;;;14.25;100.00;101922.63;5087128;28;20139;-68
2022/10/27 08:17:15;;;;;;;10.40;3.00;;;;;;;14.30;100.00;101923.63;5079273;28;20046;-68
2022/10/27 08:19:41;;;;;;;11.05;2.83;;;;;;;14.37;100.00;101930.78;5091096;28;20031;-67
2022/10/27 08:22:07;;;;;;;5.40;2.72;;;;;;;14.41;100.00;101922.03;5089067;28;20438;-68
2022/10/27 08:24:32;;;;;;;9.85;2.50;;;;;;;14.50;100.00;101916.00;5084473;28;20114;-69
2022/10/27 08:26:59;;;;;;;5.57;2.33;;;;;;;14.53;100.00;101924.03;5096786;28;20395;-69
2022/10/27 08:29:25;;;;;;;9.25;2.75;;;;;;;14.60;100.00;101917.97;5088266;28;20104;-68
2022/10/27 08:31:51;;;;;;;5.43;2.13;;;;;;;14.71;100.00;101912.88;5091740;28;20040;-68
2022/10/27 08:34:16;;;;;;;8.70;2.90;;;;;;;14.78;100.00;101912.09;5059476;28;20036;-68
2022/10/27 08:36:42;;;;;;;7.70;2.10;;;;;;;14.83;100.00;101905.13;5086202;28;20028;-68
2022/10/27 08:39:08;;;;;;;6.63;2.15;;;;;;;14.92;100.00;101895.53;5081301;28;20028;-67
2022/10/27 08:42:02;;;;;;;7.75;2.38;;;;;;;14.99;100.00;101887.72;5084987;28;20016;-67
2022/10/27 08:44:42;;;;;;;4.07;2.08;;;;;;;15.05;100.00;101884.25;5093081;28;20032;-67
2022/10/27 08:47:21;;;;;;;4.32;2.17;;;;;;;15.14;100.00;101884.41;5098243;28;20404;-67
2022/10/27 08:50:20;;;;;;;3.97;1.80;;;;;;;15.23;100.00;101869.47;5091455;28;20078;-67
2022/10/27 08:53:02;;;;;;;3.22;1.48;;;;;;;15.33;100.00;101884.66;5104595;28;20043;-69
2022/10/27 08:55:31;;;;;;;10.82;1.80;;;;;;;15.47;100.00;101882.19;5083068;28;20431;-68
2022/10/27 08:58:10;;;;;;;4.47;1.70;;;;;;;15.61;100.00;101874.38;5098070;28;20071;-66
2022/10/27 09:00:48;;;;;;;6.00;1.50;;;;;;;15.69;100.00;101862.09;5078703;28;20480;-68
2022/10/27 09:03:51;;;;;;;6.82;1.40;;;;;;;15.85;100.00;101874.72;5084133;28;20032;-67
2022/10/27 09:06:23;;;;;;;7.75;1.63;;;;;;;16.11;100.00;101884.72;5100141;28;20106;-67
2022/10/27 09:09:14;;;;;;;2.83;1.52;;;;;;;16.48;100.00;101885.09;5097320;28;20108;-67
2022/10/27 09:11:48;;;;;;;4.25;1.80;;;;;;;16.77;100.00;101875.59;5083057;28;20060;-66
2022/10/27 09:14:36;;;;;;;5.35;1.52;;;;;;;16.98;100.00;101877.50;5094351;28;20042;-66
2022/10/27 09:17:23;;;;;;;3.97;1.25;;;;;;;17.07;100.00;101874.91;5094363;28;20058;-67
2022/10/27 09:20:00;;;;;;;2.60;1.30;;;;;;;17.11;100.00;101868.72;5096409;28;20028;-68
2022/10/27 09:22:29;;;;;;;5.13;1.25;;;;;;;17.12;100.00;101870.53;5096093;28;20032;-68
2022/10/27 09:25:09;;;;;;;4.45;1.25;;;;;;;17.23;100.00;101867.00;5098715;28;20024;-67
2022/10/27 09:27:36;;;;;;;3.42;1.58;;;;;;;17.40;100.00;101870.66;5084777;28;20028;-67
2022/10/27 09:30:05;;;;;;;5.38;1.40;;;;;;;17.66;100.00;101867.22;5091041;28;20020;-67
2022/10/27 09:32:34;;;;;;;2.92;1.30;;;;;;;17.87;100.00;101863.75;5083632;28;20361;-66
2022/10/27 09:35:09;;;;;;;3.80;1.35;;;;;;;18.06;100.00;101855.84;5081205;28;20365;-68
2022/10/27 09:37:39;;;;;;;3.33;1.13;;;;;;;18.25;100.00;101854.09;5090460;28;20029;-67
2022/10/27 09:40:15;;;;;;;6.90;1.20;;;;;;;18.32;100.00;101859.41;5087488;28;20078;-66
2022/10/27 09:42:41;;;;;;;9.07;1.20;;;;;;;18.25;100.00;101848.75;5090957;28;20040;-67
2022/10/27 09:45:13;;;;;;;4.18;1.10;;;;;;;18.20;100.00;101838.06;5066834;28;20078;-67
2022/10/27 09:47:41;;;;;;;2.13;1.20;;;;;;;18.11;100.00;101827.41;5080823;28;20124;-67
2022/10/27 09:50:16;;;;;;;2.65;1.00;;;;;;;18.13;100.00;101822.97;5088916;28;20105;-66
2022/10/27 09:52:43;;;;;;;5.18;1.38;;;;;;;18.07;100.00;101831.88;5084794;28;20035;-66
2022/10/27 09:55:10;;;;;;;5.88;1.38;;;;;;;18.04;100.00;101829.16;5084133;28;20035;-67
2022/10/27 09:57:39;;;;;;;2.97;1.30;;;;;;;18.00;100.00;101830.97;5091333;28;20504;-67
2022/10/27 10:00:25;;;;;;;5.65;1.50;;;;;;;17.94;100.00;101830.06;5085600;28;20039;-66
2022/10/27 10:03:01;;;;;;;2.13;0.88;;;;;;;17.91;100.00;101814.94;5089970;28;20028;-67
2022/10/27 10:05:30;;;;;;;5.25;1.73;;;;;;;17.86;100.00;101822.94;5076947;28;20024;-67
2022/10/27 10:08:18;;;;;;;14.02;1.25;;;;;;;17.85;100.00;101825.56;5082422;28;20375;-68
2022/10/27 10:10:54;;;;;;;2.15;1.13;;;;;;;17.89;100.00;101826.47;5075241;28;20500;-68
2022/10/27 10:13:20;;;;;;;3.78;1.10;;;;;;;17.92;100.00;101822.06;5079909;28;20384;-68
2022/10/27 10:15:46;;;;;;;1.92;1.10;;;;;;;17.93;100.00;101820.28;5086535;28;20035;-67
2022/10/27 10:18:27;;;;;;;3.35;1.27;;;;;;;17.89;100.00;101822.00;5084586;28;20035;-68
2022/10/27 10:21:01;;;;;;;6.75;1.63;;;;;;;17.83;100.00;101822.91;5086670;28;20030;-67
2022/10/27 10:23:30;;;;;;;3.00;0.98;;;;;;;17.80;100.00;101817.56;5083033;28;20020;-67
2022/10/27 10:25:57;;;;;;;3.40;1.33;;;;;;;17.78;100.00;101814.00;5084213;28;20048;-68
2022/10/27 10:28:35;;;;;;;3.78;1.20;;;;;;;17.77;100.00;101812.25;5082608;28;20119;-67
2022/10/27 10:31:04;;;;;;;3.22;1.30;;;;;;;17.75;100.00;101823.78;5081966;28;20016;-68
2022/10/27 10:33:36;;;;;;;5.35;1.45;;;;;;;17.74;100.00;101820.19;5090574;28;20028;-68
2022/10/27 10:36:24;;;;;;;5.00;1.35;;;;;;;17.76;100.00;101815.78;5088953;28;20031;-68
2022/10/27 10:38:55;;;;;;;7.88;1.77;;;;;;;17.88;100.00;101817.59;5084100;28;20028;-68
2022/10/27 10:41:21;;;;;;;7.30;1.45;;;;;;;18.00;100.00;101808.75;5082597;28;20028;-67
2022/10/27 10:44:12;;;;;;;5.88;1.77;;;;;;;18.18;100.00;101814.09;5088043;28;20028;-67
2022/10/27 10:46:39;;;;;;;8.93;1.52;;;;;;;18.40;100.00;101805.22;5076847;28;20094;-67
2022/10/27 10:49:17;;;;;;;3.92;1.23;;;;;;;18.69;100.00;101814.09;5081595;28;20024;-66
2022/10/27 10:51:50;;;;;;;2.60;1.30;;;;;;;18.95;100.00;101804.28;5088031;28;20085;-68
2022/10/27 10:54:22;;;;;;;6.50;1.40;;;;;;;19.12;100.00;101806.91;5086477;28;20016;-67
2022/10/27 10:56:51;;;;;;;3.88;1.25;;;;;;;19.25;100.00;101805.06;5089822;28;20024;-68
2022/10/27 10:59:20;;;;;;;5.80;1.20;;;;;;;19.26;100.00;101817.50;5082128;28;20098;-67
2022/10/27 11:01:55;;;;;;;4.55;1.35;;;;;;;19.13;100.00;101812.22;5087710;28;20028;-67
2022/10/27 11:04:32;;;;;;;6.82;1.25;;;;;;;18.93;100.00;101804.28;5083593;28;20035;-68
2022/10/27 11:07:06;;;;;;;5.25;1.90;;;;;;;18.72;100.00;101799.88;5079533;28;20112;-68
2022/10/27 11:09:44;;;;;;;5.18;1.13;;;;;;;18.51;100.00;101801.66;5079189;28;20016;-68
2022/10/27 11:12:36;;;;;;;6.95;1.38;;;;;;;18.33;100.00;101804.34;5085915;28;20457;-68
2022/10/27 11:15:31;;;;;;;3.88;1.40;;;;;;;18.25;100.00;101798.13;5085716;28;20023;-67
2022/10/27 11:18:18;;;;;;;2.25;1.30;;;;;;;18.14;100.00;101799.00;5075783;28;20047;-67
2022/10/27 11:20:46;;;;;;;7.28;1.23;;;;;;;18.11;100.00;101796.34;5083658;28;20069;-67
2022/10/27 11:23:24;;;;;;;3.45;1.50;;;;;;;18.07;100.00;101783.91;5094031;28;20054;-68